Terminal Aerodrome Forecast
Issued by NWS Topeka, KS

Home | Current Version | Previous Version | Text Only | Print | Product List | Glossary Off
Versions: 1 2 3 4 5 6 7 8 9 10 11 12 13 14 15 16 17

000
FTUS43 KTOP 200500
TAFTOP
TAF
KTOP 200520Z 2006/2106 06011KT P6SM -SHRA SCT020 OVC035
     FM200800 05013KT 6SM -RA BR SCT012 OVC020
     FM201200 03012KT 5SM BR SCT009 BKN015
     FM202300 01008KT P6SM OVC025=

USA.gov is the U.S. government's official web portal to all federal, state and local government web resources and services.